sensor_id;sensor_type;location;lat;lon;timestamp;P1;durP1;ratioP1;P2;durP2;ratioP2
14681;SDS011;7429;52.498;13.480;2022-08-25T00:00:02;11.90;;;9.35;;
14681;SDS011;7429;52.498;13.480;2022-08-25T00:03:08;10.63;;;8.63;;
14681;SDS011;7429;52.498;13.480;2022-08-25T00:06:12;13.07;;;8.68;;
14681;SDS011;7429;52.498;13.480;2022-08-25T00:09:17;10.82;;;9.25;;
14681;SDS011;7429;52.498;13.480;2022-08-25T00:12:23;10.40;;;9.40;;
14681;SDS011;7429;52.498;13.480;2022-08-25T00:15:26;10.02;;;8.77;;
14681;SDS011;7429;52.498;13.480;2022-08-25T00:18:32;12.10;;;9.80;;
14681;SDS011;7429;52.498;13.480;2022-08-25T00:21:38;10.60;;;9.60;;
14681;SDS011;7429;52.498;13.480;2022-08-25T00:24:42;10.70;;;9.55;;
14681;SDS011;7429;52.498;13.480;2022-08-25T00:27:46;14.73;;;10.93;;
14681;SDS011;7429;52.498;13.480;2022-08-25T00:30:49;11.63;;;10.68;;
14681;SDS011;7429;52.498;13.480;2022-08-25T00:33:52;10.27;;;9.38;;
14681;SDS011;7429;52.498;13.480;2022-08-25T00:36:57;13.25;;;8.95;;
14681;SDS011;7429;52.498;13.480;2022-08-25T00:40:01;14.68;;;10.93;;
14681;SDS011;7429;52.498;13.480;2022-08-25T00:43:05;11.77;;;10.55;;
14681;SDS011;7429;52.498;13.480;2022-08-25T00:46:11;12.18;;;9.48;;
14681;SDS011;7429;52.498;13.480;2022-08-25T00:49:16;10.70;;;9.40;;
14681;SDS011;7429;52.498;13.480;2022-08-25T00:52:28;14.85;;;10.90;;
14681;SDS011;7429;52.498;13.480;2022-08-25T00:55:35;11.40;;;9.27;;
14681;SDS011;7429;52.498;13.480;2022-08-25T00:58:39;14.00;;;10.48;;
14681;SDS011;7429;52.498;13.480;2022-08-25T01:01:46;12.98;;;11.70;;
14681;SDS011;7429;52.498;13.480;2022-08-25T01:04:51;12.23;;;10.95;;
14681;SDS011;7429;52.498;13.480;2022-08-25T01:07:55;14.70;;;11.15;;
14681;SDS011;7429;52.498;13.480;2022-08-25T01:11:07;12.85;;;10.68;;
14681;SDS011;7429;52.498;13.480;2022-08-25T01:14:12;11.65;;;10.45;;
14681;SDS011;7429;52.498;13.480;2022-08-25T01:17:19;15.40;;;11.38;;
14681;SDS011;7429;52.498;13.480;2022-08-25T01:20:24;19.58;;;11.18;;
14681;SDS011;7429;52.498;13.480;2022-08-25T01:23:31;12.70;;;11.43;;
14681;SDS011;7429;52.498;13.480;2022-08-25T01:26:34;11.40;;;10.38;;
14681;SDS011;7429;52.498;13.480;2022-08-25T01:29:38;17.60;;;12.70;;
14681;SDS011;7429;52.498;13.480;2022-08-25T01:32:41;12.15;;;10.65;;
14681;SDS011;7429;52.498;13.480;2022-08-25T01:35:45;13.48;;;12.18;;
14681;SDS011;7429;52.498;13.480;2022-08-25T01:38:50;13.05;;;11.00;;
14681;SDS011;7429;52.498;13.480;2022-08-25T01:41:58;15.85;;;12.23;;
14681;SDS011;7429;52.498;13.480;2022-08-25T01:45:15;14.07;;;12.68;;
14681;SDS011;7429;52.498;13.480;2022-08-25T01:48:18;14.82;;;11.50;;
14681;SDS011;7429;52.498;13.480;2022-08-25T01:51:23;12.25;;;10.13;;
14681;SDS011;7429;52.498;13.480;2022-08-25T01:54:28;16.02;;;11.68;;
14681;SDS011;7429;52.498;13.480;2022-08-25T01:57:31;13.52;;;11.98;;
14681;SDS011;7429;52.498;13.480;2022-08-25T02:00:34;13.63;;;11.32;;
14681;SDS011;7429;52.498;13.480;2022-08-25T02:03:38;15.52;;;11.80;;
14681;SDS011;7429;52.498;13.480;2022-08-25T02:06:43;15.45;;;13.85;;
14681;SDS011;7429;52.498;13.480;2022-08-25T02:09:48;16.10;;;13.10;;
14681;SDS011;7429;52.498;13.480;2022-08-25T02:12:51;15.85;;;14.35;;
14681;SDS011;7429;52.498;13.480;2022-08-25T02:15:55;18.58;;;12.63;;
14681;SDS011;7429;52.498;13.480;2022-08-25T02:19:01;13.90;;;12.45;;
14681;SDS011;7429;52.498;13.480;2022-08-25T02:22:06;20.30;;;18.63;;
14681;SDS011;7429;52.498;13.480;2022-08-25T02:25:11;20.63;;;15.32;;
14681;SDS011;7429;52.498;13.480;2022-08-25T02:28:14;15.10;;;12.82;;
14681;SDS011;7429;52.498;13.480;2022-08-25T02:31:18;16.23;;;12.73;;
14681;SDS011;7429;52.498;13.480;2022-08-25T02:34:25;20.60;;;14.32;;
14681;SDS011;7429;52.498;13.480;2022-08-25T02:37:31;17.80;;;13.70;;
14681;SDS011;7429;52.498;13.480;2022-08-25T02:40:36;15.10;;;13.30;;
14681;SDS011;7429;52.498;13.480;2022-08-25T02:43:39;18.23;;;15.27;;
14681;SDS011;7429;52.498;13.480;2022-08-25T02:46:44;18.02;;;15.45;;
14681;SDS011;7429;52.498;13.480;2022-08-25T02:49:47;26.50;;;23.98;;
14681;SDS011;7429;52.498;13.480;2022-08-25T02:52:50;23.17;;;20.85;;
14681;SDS011;7429;52.498;13.480;2022-08-25T02:55:54;21.05;;;18.90;;
14681;SDS011;7429;52.498;13.480;2022-08-25T02:58:58;25.20;;;22.98;;
14681;SDS011;7429;52.498;13.480;2022-08-25T03:02:02;17.23;;;15.30;;
14681;SDS011;7429;52.498;13.480;2022-08-25T03:05:06;19.92;;;14.48;;
14681;SDS011;7429;52.498;13.480;2022-08-25T03:08:10;16.98;;;15.38;;
14681;SDS011;7429;52.498;13.480;2022-08-25T03:11:16;20.33;;;18.10;;
14681;SDS011;7429;52.498;13.480;2022-08-25T03:14:19;19.73;;;17.15;;
14681;SDS011;7429;52.498;13.480;2022-08-25T03:17:22;17.83;;;15.05;;
14681;SDS011;7429;52.498;13.480;2022-08-25T03:20:25;20.73;;;12.55;;
14681;SDS011;7429;52.498;13.480;2022-08-25T03:23:29;24.50;;;14.55;;
14681;SDS011;7429;52.498;13.480;2022-08-25T03:26:34;18.85;;;12.98;;
14681;SDS011;7429;52.498;13.480;2022-08-25T03:29:56;18.70;;;13.65;;
14681;SDS011;7429;52.498;13.480;2022-08-25T03:32:59;17.50;;;13.55;;
14681;SDS011;7429;52.498;13.480;2022-08-25T03:36:02;20.33;;;15.50;;
14681;SDS011;7429;52.498;13.480;2022-08-25T03:39:06;21.45;;;13.40;;
14681;SDS011;7429;52.498;13.480;2022-08-25T03:42:11;16.40;;;14.40;;
14681;SDS011;7429;52.498;13.480;2022-08-25T03:45:14;20.35;;;16.38;;
14681;SDS011;7429;52.498;13.480;2022-08-25T03:48:19;21.00;;;17.05;;
14681;SDS011;7429;52.498;13.480;2022-08-25T03:51:23;25.00;;;17.40;;
14681;SDS011;7429;52.498;13.480;2022-08-25T03:54:29;20.02;;;15.85;;
14681;SDS011;7429;52.498;13.480;2022-08-25T03:57:33;20.13;;;16.02;;
14681;SDS011;7429;52.498;13.480;2022-08-25T04:00:36;25.75;;;20.02;;
14681;SDS011;7429;52.498;13.480;2022-08-25T04:03:39;19.42;;;17.33;;
14681;SDS011;7429;52.498;13.480;2022-08-25T04:06:42;26.85;;;22.92;;
14681;SDS011;7429;52.498;13.480;2022-08-25T04:09:46;23.98;;;15.70;;
14681;SDS011;7429;52.498;13.480;2022-08-25T04:12:50;22.17;;;19.73;;
14681;SDS011;7429;52.498;13.480;2022-08-25T04:15:53;19.98;;;18.02;;
14681;SDS011;7429;52.498;13.480;2022-08-25T04:18:56;25.83;;;20.27;;
14681;SDS011;7429;52.498;13.480;2022-08-25T04:22:03;19.83;;;16.83;;
14681;SDS011;7429;52.498;13.480;2022-08-25T04:25:06;22.17;;;19.95;;
14681;SDS011;7429;52.498;13.480;2022-08-25T04:28:12;23.20;;;17.58;;
14681;SDS011;7429;52.498;13.480;2022-08-25T04:31:16;27.45;;;20.13;;
14681;SDS011;7429;52.498;13.480;2022-08-25T04:34:22;18.75;;;16.80;;
14681;SDS011;7429;52.498;13.480;2022-08-25T04:37:31;26.02;;;17.80;;
14681;SDS011;7429;52.498;13.480;2022-08-25T04:40:34;23.00;;;17.80;;
14681;SDS011;7429;52.498;13.480;2022-08-25T04:43:39;20.90;;;18.30;;
14681;SDS011;7429;52.498;13.480;2022-08-25T04:46:44;27.48;;;21.58;;
14681;SDS011;7429;52.498;13.480;2022-08-25T04:49:47;29.15;;;22.50;;
14681;SDS011;7429;52.498;13.480;2022-08-25T04:52:51;28.80;;;21.65;;
14681;SDS011;7429;52.498;13.480;2022-08-25T04:55:54;43.55;;;24.85;;
14681;SDS011;7429;52.498;13.480;2022-08-25T04:59:06;37.50;;;27.00;;
14681;SDS011;7429;52.498;13.480;2022-08-25T05:02:11;42.42;;;30.90;;
14681;SDS011;7429;52.498;13.480;2022-08-25T05:05:15;40.63;;;29.60;;
14681;SDS011;7429;52.498;13.480;2022-08-25T05:08:18;40.78;;;32.78;;
14681;SDS011;7429;52.498;13.480;2022-08-25T05:11:21;40.22;;;30.05;;
14681;SDS011;7429;52.498;13.480;2022-08-25T05:14:27;42.42;;;32.83;;
14681;SDS011;7429;52.498;13.480;2022-08-25T05:17:30;40.58;;;33.63;;
14681;SDS011;7429;52.498;13.480;2022-08-25T05:20:34;37.90;;;30.35;;
14681;SDS011;7429;52.498;13.480;2022-08-25T05:23:38;38.97;;;29.77;;
14681;SDS011;7429;52.498;13.480;2022-08-25T05:26:41;40.47;;;33.63;;
14681;SDS011;7429;52.498;13.480;2022-08-25T05:29:46;34.83;;;28.52;;
14681;SDS011;7429;52.498;13.480;2022-08-25T05:32:49;32.33;;;25.38;;
14681;SDS011;7429;52.498;13.480;2022-08-25T05:35:52;28.75;;;23.05;;
14681;SDS011;7429;52.498;13.480;2022-08-25T05:38:55;31.50;;;27.98;;
14681;SDS011;7429;52.498;13.480;2022-08-25T05:41:58;26.05;;;22.40;;
14681;SDS011;7429;52.498;13.480;2022-08-25T05:45:03;27.00;;;24.02;;
14681;SDS011;7429;52.498;13.480;2022-08-25T05:48:07;26.60;;;23.80;;
14681;SDS011;7429;52.498;13.480;2022-08-25T05:51:10;30.55;;;27.25;;
14681;SDS011;7429;52.498;13.480;2022-08-25T05:54:15;31.58;;;26.30;;
14681;SDS011;7429;52.498;13.480;2022-08-25T05:57:18;32.20;;;26.65;;
14681;SDS011;7429;52.498;13.480;2022-08-25T06:00:22;36.95;;;33.03;;
14681;SDS011;7429;52.498;13.480;2022-08-25T06:03:25;35.05;;;27.67;;
14681;SDS011;7429;52.498;13.480;2022-08-25T06:06:28;29.58;;;26.52;;
14681;SDS011;7429;52.498;13.480;2022-08-25T06:09:31;38.75;;;30.08;;
14681;SDS011;7429;52.498;13.480;2022-08-25T06:12:34;37.53;;;31.35;;
14681;SDS011;7429;52.498;13.480;2022-08-25T06:15:40;38.30;;;27.25;;
14681;SDS011;7429;52.498;13.480;2022-08-25T06:18:43;32.88;;;28.33;;
14681;SDS011;7429;52.498;13.480;2022-08-25T06:21:46;32.83;;;26.15;;
14681;SDS011;7429;52.498;13.480;2022-08-25T06:24:49;39.65;;;34.35;;
14681;SDS011;7429;52.498;13.480;2022-08-25T06:27:53;32.08;;;28.63;;
14681;SDS011;7429;52.498;13.480;2022-08-25T06:30:58;33.72;;;25.20;;
14681;SDS011;7429;52.498;13.480;2022-08-25T06:34:03;30.35;;;27.23;;
14681;SDS011;7429;52.498;13.480;2022-08-25T06:37:07;32.60;;;24.50;;
14681;SDS011;7429;52.498;13.480;2022-08-25T06:40:10;31.90;;;23.30;;
14681;SDS011;7429;52.498;13.480;2022-08-25T06:43:16;30.63;;;24.02;;
14681;SDS011;7429;52.498;13.480;2022-08-25T06:46:22;30.73;;;24.80;;
14681;SDS011;7429;52.498;13.480;2022-08-25T06:49:36;29.75;;;22.15;;
14681;SDS011;7429;52.498;13.480;2022-08-25T06:52:42;33.22;;;26.52;;
14681;SDS011;7429;52.498;13.480;2022-08-25T06:55:54;30.98;;;27.20;;
14681;SDS011;7429;52.498;13.480;2022-08-25T06:58:59;27.33;;;23.42;;
14681;SDS011;7429;52.498;13.480;2022-08-25T07:02:04;31.38;;;22.73;;
14681;SDS011;7429;52.498;13.480;2022-08-25T07:05:09;26.85;;;23.55;;
14681;SDS011;7429;52.498;13.480;2022-08-25T07:08:21;29.52;;;22.80;;
14681;SDS011;7429;52.498;13.480;2022-08-25T07:11:25;28.83;;;22.10;;
14681;SDS011;7429;52.498;13.480;2022-08-25T07:14:29;27.00;;;23.40;;
14681;SDS011;7429;52.498;13.480;2022-08-25T07:17:34;31.17;;;24.80;;
14681;SDS011;7429;52.498;13.480;2022-08-25T07:20:37;33.10;;;24.45;;
14681;SDS011;7429;52.498;13.480;2022-08-25T07:23:41;31.67;;;22.02;;
14681;SDS011;7429;52.498;13.480;2022-08-25T07:26:44;31.10;;;22.83;;
14681;SDS011;7429;52.498;13.480;2022-08-25T07:29:47;30.58;;;24.27;;
14681;SDS011;7429;52.498;13.480;2022-08-25T07:32:52;32.20;;;23.45;;
14681;SDS011;7429;52.498;13.480;2022-08-25T07:35:55;34.15;;;23.58;;
14681;SDS011;7429;52.498;13.480;2022-08-25T07:38:58;34.85;;;25.23;;
14681;SDS011;7429;52.498;13.480;2022-08-25T07:42:05;33.67;;;25.23;;
14681;SDS011;7429;52.498;13.480;2022-08-25T07:45:12;35.58;;;25.15;;
14681;SDS011;7429;52.498;13.480;2022-08-25T07:48:22;30.17;;;23.02;;
14681;SDS011;7429;52.498;13.480;2022-08-25T07:51:26;34.00;;;23.85;;
14681;SDS011;7429;52.498;13.480;2022-08-25T07:54:29;34.78;;;24.75;;
14681;SDS011;7429;52.498;13.480;2022-08-25T07:57:38;32.08;;;23.65;;
14681;SDS011;7429;52.498;13.480;2022-08-25T08:00:41;36.13;;;24.52;;
14681;SDS011;7429;52.498;13.480;2022-08-25T08:03:46;31.58;;;23.80;;
14681;SDS011;7429;52.498;13.480;2022-08-25T08:06:51;35.38;;;25.67;;
14681;SDS011;7429;52.498;13.480;2022-08-25T08:09:54;31.55;;;24.60;;
14681;SDS011;7429;52.498;13.480;2022-08-25T08:13:17;31.55;;;23.80;;
14681;SDS011;7429;52.498;13.480;2022-08-25T08:16:22;32.47;;;25.23;;
14681;SDS011;7429;52.498;13.480;2022-08-25T08:19:29;33.75;;;24.48;;
14681;SDS011;7429;52.498;13.480;2022-08-25T08:22:32;31.33;;;23.05;;
14681;SDS011;7429;52.498;13.480;2022-08-25T08:25:35;36.35;;;31.98;;
14681;SDS011;7429;52.498;13.480;2022-08-25T08:28:38;41.72;;;34.70;;
14681;SDS011;7429;52.498;13.480;2022-08-25T08:31:41;36.72;;;23.52;;
14681;SDS011;7429;52.498;13.480;2022-08-25T08:34:50;35.10;;;22.73;;
14681;SDS011;7429;52.498;13.480;2022-08-25T08:37:53;32.15;;;22.33;;
14681;SDS011;7429;52.498;13.480;2022-08-25T08:40:59;28.27;;;21.83;;
14681;SDS011;7429;52.498;13.480;2022-08-25T08:44:41;25.08;;;19.55;;
14681;SDS011;7429;52.498;13.480;2022-08-25T08:48:13;27.10;;;22.35;;
14681;SDS011;7429;52.498;13.480;2022-08-25T08:51:30;23.40;;;20.83;;
14681;SDS011;7429;52.498;13.480;2022-08-25T08:54:47;26.33;;;23.73;;
14681;SDS011;7429;52.498;13.480;2022-08-25T08:57:59;23.65;;;17.92;;
14681;SDS011;7429;52.498;13.480;2022-08-25T09:01:08;26.38;;;18.15;;
14681;SDS011;7429;52.498;13.480;2022-08-25T09:04:17;21.02;;;18.88;;
14681;SDS011;7429;52.498;13.480;2022-08-25T09:07:30;25.67;;;21.55;;
14681;SDS011;7429;52.498;13.480;2022-08-25T09:10:47;21.27;;;16.98;;
14681;SDS011;7429;52.498;13.480;2022-08-25T09:14:03;21.50;;;17.05;;
14681;SDS011;7429;52.498;13.480;2022-08-25T09:17:21;20.02;;;15.02;;
14681;SDS011;7429;52.498;13.480;2022-08-25T09:20:40;16.90;;;15.18;;
14681;SDS011;7429;52.498;13.480;2022-08-25T09:24:03;21.83;;;14.55;;
14681;SDS011;7429;52.498;13.480;2022-08-25T09:27:21;21.83;;;15.43;;
14681;SDS011;7429;52.498;13.480;2022-08-25T09:30:31;16.98;;;14.05;;
14681;SDS011;7429;52.498;13.480;2022-08-25T09:33:54;19.30;;;14.02;;
14681;SDS011;7429;52.498;13.480;2022-08-25T09:37:00;15.13;;;13.68;;
14681;SDS011;7429;52.498;13.480;2022-08-25T09:40:05;14.85;;;13.02;;
14681;SDS011;7429;52.498;13.480;2022-08-25T09:43:17;18.80;;;12.95;;
14681;SDS011;7429;52.498;13.480;2022-08-25T09:46:24;17.50;;;14.00;;
14681;SDS011;7429;52.498;13.480;2022-08-25T09:49:33;18.42;;;13.73;;
14681;SDS011;7429;52.498;13.480;2022-08-25T09:52:40;16.00;;;13.35;;
14681;SDS011;7429;52.498;13.480;2022-08-25T09:55:46;18.08;;;14.70;;
14681;SDS011;7429;52.498;13.480;2022-08-25T10:02:35;14.18;;;12.15;;
14681;SDS011;7429;52.498;13.480;2022-08-25T10:05:56;17.77;;;14.00;;
14681;SDS011;7429;52.498;13.480;2022-08-25T10:09:06;13.75;;;11.57;;
14681;SDS011;7429;52.498;13.480;2022-08-25T10:12:15;13.30;;;11.00;;
14681;SDS011;7429;52.498;13.480;2022-08-25T10:15:29;14.63;;;12.75;;
14681;SDS011;7429;52.498;13.480;2022-08-25T10:18:35;17.73;;;11.93;;
14681;SDS011;7429;52.498;13.480;2022-08-25T10:21:39;12.50;;;11.20;;
14681;SDS011;7429;52.498;13.480;2022-08-25T10:24:45;14.60;;;11.10;;
14681;SDS011;7429;52.498;13.480;2022-08-25T10:27:51;12.50;;;9.27;;
14681;SDS011;7429;52.498;13.480;2022-08-25T10:31:11;16.55;;;10.13;;
14681;SDS011;7429;52.498;13.480;2022-08-25T10:34:27;13.95;;;12.55;;
14681;SDS011;7429;52.498;13.480;2022-08-25T10:37:46;13.65;;;10.20;;
14681;SDS011;7429;52.498;13.480;2022-08-25T10:41:08;10.32;;;8.82;;
14681;SDS011;7429;52.498;13.480;2022-08-25T10:44:29;16.15;;;10.13;;
14681;SDS011;7429;52.498;13.480;2022-08-25T10:48:03;11.88;;;10.63;;
14681;SDS011;7429;52.498;13.480;2022-08-25T10:51:49;18.02;;;12.63;;
14681;SDS011;7429;52.498;13.480;2022-08-25T10:55:00;19.67;;;9.43;;
14681;SDS011;7429;52.498;13.480;2022-08-25T10:58:15;12.25;;;8.05;;
14681;SDS011;7429;52.498;13.480;2022-08-25T11:01:36;18.25;;;9.27;;
14681;SDS011;7429;52.498;13.480;2022-08-25T11:04:54;15.90;;;12.05;;
14681;SDS011;7429;52.498;13.480;2022-08-25T11:08:05;16.35;;;10.85;;
14681;SDS011;7429;52.498;13.480;2022-08-25T11:11:15;16.10;;;9.13;;
14681;SDS011;7429;52.498;13.480;2022-08-25T11:14:27;14.77;;;9.13;;
14681;SDS011;7429;52.498;13.480;2022-08-25T11:17:41;18.48;;;9.30;;
14681;SDS011;7429;52.498;13.480;2022-08-25T11:20:58;14.27;;;8.73;;
14681;SDS011;7429;52.498;13.480;2022-08-25T11:24:12;14.25;;;8.65;;
14681;SDS011;7429;52.498;13.480;2022-08-25T11:27:32;18.27;;;8.95;;
14681;SDS011;7429;52.498;13.480;2022-08-25T11:30:42;15.35;;;8.48;;
14681;SDS011;7429;52.498;13.480;2022-08-25T11:33:49;16.95;;;8.80;;
14681;SDS011;7429;52.498;13.480;2022-08-25T11:36:53;15.55;;;8.77;;
14681;SDS011;7429;52.498;13.480;2022-08-25T11:40:13;13.65;;;8.07;;
14681;SDS011;7429;52.498;13.480;2022-08-25T11:43:34;13.70;;;8.23;;
14681;SDS011;7429;52.498;13.480;2022-08-25T11:46:56;12.95;;;8.32;;
14681;SDS011;7429;52.498;13.480;2022-08-25T11:50:25;16.42;;;8.30;;
14681;SDS011;7429;52.498;13.480;2022-08-25T11:53:33;16.17;;;9.55;;
14681;SDS011;7429;52.498;13.480;2022-08-25T11:56:38;15.45;;;9.82;;
14681;SDS011;7429;52.498;13.480;2022-08-25T12:00:00;12.70;;;8.05;;
14681;SDS011;7429;52.498;13.480;2022-08-25T12:07:16;17.95;;;8.68;;
14681;SDS011;7429;52.498;13.480;2022-08-25T12:10:28;15.23;;;8.98;;
14681;SDS011;7429;52.498;13.480;2022-08-25T12:14:13;15.30;;;9.57;;
14681;SDS011;7429;52.498;13.480;2022-08-25T12:17:38;19.33;;;8.02;;
14681;SDS011;7429;52.498;13.480;2022-08-25T12:24:17;12.23;;;7.85;;
14681;SDS011;7429;52.498;13.480;2022-08-25T12:27:23;11.32;;;6.93;;
14681;SDS011;7429;52.498;13.480;2022-08-25T12:30:37;15.75;;;8.38;;
14681;SDS011;7429;52.498;13.480;2022-08-25T12:33:54;15.95;;;7.20;;
14681;SDS011;7429;52.498;13.480;2022-08-25T12:37:13;22.60;;;8.02;;
14681;SDS011;7429;52.498;13.480;2022-08-25T12:40:21;17.92;;;8.38;;
14681;SDS011;7429;52.498;13.480;2022-08-25T12:43:31;13.13;;;7.30;;
14681;SDS011;7429;52.498;13.480;2022-08-25T12:46:38;13.25;;;7.53;;
14681;SDS011;7429;52.498;13.480;2022-08-25T12:49:48;19.77;;;8.40;;
14681;SDS011;7429;52.498;13.480;2022-08-25T12:52:52;16.80;;;8.88;;
14681;SDS011;7429;52.498;13.480;2022-08-25T12:56:00;14.68;;;7.50;;
14681;SDS011;7429;52.498;13.480;2022-08-25T12:59:13;22.60;;;7.25;;
14681;SDS011;7429;52.498;13.480;2022-08-25T13:02:27;13.40;;;6.93;;
14681;SDS011;7429;52.498;13.480;2022-08-25T13:06:11;17.48;;;8.60;;
14681;SDS011;7429;52.498;13.480;2022-08-25T13:13:11;15.43;;;7.00;;
14681;SDS011;7429;52.498;13.480;2022-08-25T13:16:26;13.18;;;7.70;;
14681;SDS011;7429;52.498;13.480;2022-08-25T13:19:30;13.02;;;6.95;;
14681;SDS011;7429;52.498;13.480;2022-08-25T13:22:35;16.75;;;6.97;;
14681;SDS011;7429;52.498;13.480;2022-08-25T13:25:44;19.95;;;9.48;;
14681;SDS011;7429;52.498;13.480;2022-08-25T13:28:52;14.82;;;8.07;;
14681;SDS011;7429;52.498;13.480;2022-08-25T13:32:01;10.35;;;7.18;;
14681;SDS011;7429;52.498;13.480;2022-08-25T13:35:11;14.30;;;6.90;;
14681;SDS011;7429;52.498;13.480;2022-08-25T13:38:20;16.70;;;9.18;;
14681;SDS011;7429;52.498;13.480;2022-08-25T13:41:24;12.07;;;6.97;;
14681;SDS011;7429;52.498;13.480;2022-08-25T13:44:34;13.57;;;7.25;;
14681;SDS011;7429;52.498;13.480;2022-08-25T13:47:40;13.13;;;8.15;;
14681;SDS011;7429;52.498;13.480;2022-08-25T13:50:46;12.88;;;7.47;;
14681;SDS011;7429;52.498;13.480;2022-08-25T13:53:54;14.82;;;8.32;;
14681;SDS011;7429;52.498;13.480;2022-08-25T13:57:05;13.30;;;6.82;;
14681;SDS011;7429;52.498;13.480;2022-08-25T14:00:27;10.55;;;7.38;;
14681;SDS011;7429;52.498;13.480;2022-08-25T14:03:35;13.65;;;6.97;;
14681;SDS011;7429;52.498;13.480;2022-08-25T14:06:46;15.48;;;7.38;;
14681;SDS011;7429;52.498;13.480;2022-08-25T14:09:51;11.20;;;6.53;;
14681;SDS011;7429;52.498;13.480;2022-08-25T14:13:06;12.05;;;6.82;;
14681;SDS011;7429;52.498;13.480;2022-08-25T14:16:21;12.05;;;8.60;;
14681;SDS011;7429;52.498;13.480;2022-08-25T14:19:26;18.90;;;17.08;;
14681;SDS011;7429;52.498;13.480;2022-08-25T14:22:30;12.60;;;7.30;;
14681;SDS011;7429;52.498;13.480;2022-08-25T14:25:34;13.02;;;8.32;;
14681;SDS011;7429;52.498;13.480;2022-08-25T14:28:42;13.68;;;7.15;;
14681;SDS011;7429;52.498;13.480;2022-08-25T14:31:47;22.55;;;7.68;;
14681;SDS011;7429;52.498;13.480;2022-08-25T14:34:51;20.05;;;8.23;;
14681;SDS011;7429;52.498;13.480;2022-08-25T14:37:54;17.77;;;7.63;;
14681;SDS011;7429;52.498;13.480;2022-08-25T14:40:58;12.00;;;6.80;;
14681;SDS011;7429;52.498;13.480;2022-08-25T14:44:02;18.65;;;6.70;;
14681;SDS011;7429;52.498;13.480;2022-08-25T14:47:08;16.48;;;6.93;;
14681;SDS011;7429;52.498;13.480;2022-08-25T14:50:11;14.23;;;6.35;;
14681;SDS011;7429;52.498;13.480;2022-08-25T14:53:20;15.68;;;8.65;;
14681;SDS011;7429;52.498;13.480;2022-08-25T14:56:24;13.38;;;6.00;;
14681;SDS011;7429;52.498;13.480;2022-08-25T14:59:29;18.40;;;6.43;;
14681;SDS011;7429;52.498;13.480;2022-08-25T15:02:35;17.73;;;6.25;;
14681;SDS011;7429;52.498;13.480;2022-08-25T15:05:42;13.27;;;5.57;;
14681;SDS011;7429;52.498;13.480;2022-08-25T15:08:48;15.35;;;6.63;;
14681;SDS011;7429;52.498;13.480;2022-08-25T15:12:11;11.20;;;7.68;;
14681;SDS011;7429;52.498;13.480;2022-08-25T15:15:26;12.38;;;6.43;;
14681;SDS011;7429;52.498;13.480;2022-08-25T15:18:32;13.60;;;6.20;;
14681;SDS011;7429;52.498;13.480;2022-08-25T15:21:36;14.93;;;6.15;;
14681;SDS011;7429;52.498;13.480;2022-08-25T15:24:39;13.77;;;6.35;;
14681;SDS011;7429;52.498;13.480;2022-08-25T15:27:42;11.55;;;5.85;;
14681;SDS011;7429;52.498;13.480;2022-08-25T15:30:46;17.80;;;6.05;;
14681;SDS011;7429;52.498;13.480;2022-08-25T15:33:51;12.25;;;6.18;;
14681;SDS011;7429;52.498;13.480;2022-08-25T15:36:55;14.55;;;6.35;;
14681;SDS011;7429;52.498;13.480;2022-08-25T15:39:59;13.48;;;7.45;;
14681;SDS011;7429;52.498;13.480;2022-08-25T15:43:07;19.63;;;6.25;;
14681;SDS011;7429;52.498;13.480;2022-08-25T15:46:11;14.45;;;6.05;;
14681;SDS011;7429;52.498;13.480;2022-08-25T15:49:22;14.38;;;6.78;;
14681;SDS011;7429;52.498;13.480;2022-08-25T15:52:29;16.45;;;6.47;;
14681;SDS011;7429;52.498;13.480;2022-08-25T15:55:48;17.02;;;6.13;;
14681;SDS011;7429;52.498;13.480;2022-08-25T15:58:54;20.17;;;6.80;;
14681;SDS011;7429;52.498;13.480;2022-08-25T16:01:57;18.90;;;6.55;;
14681;SDS011;7429;52.498;13.480;2022-08-25T16:05:06;17.25;;;6.75;;
14681;SDS011;7429;52.498;13.480;2022-08-25T16:08:11;18.67;;;6.85;;
14681;SDS011;7429;52.498;13.480;2022-08-25T16:11:20;21.33;;;7.22;;
14681;SDS011;7429;52.498;13.480;2022-08-25T16:14:26;24.10;;;7.78;;
14681;SDS011;7429;52.498;13.480;2022-08-25T16:17:29;19.10;;;6.47;;
14681;SDS011;7429;52.498;13.480;2022-08-25T16:20:34;19.92;;;6.65;;
14681;SDS011;7429;52.498;13.480;2022-08-25T16:23:38;23.48;;;7.00;;
14681;SDS011;7429;52.498;13.480;2022-08-25T16:26:43;23.45;;;7.75;;
14681;SDS011;7429;52.498;13.480;2022-08-25T16:29:49;18.95;;;6.78;;
14681;SDS011;7429;52.498;13.480;2022-08-25T16:32:53;19.25;;;7.00;;
14681;SDS011;7429;52.498;13.480;2022-08-25T16:36:04;13.98;;;7.57;;
14681;SDS011;7429;52.498;13.480;2022-08-25T16:39:09;13.68;;;6.63;;
14681;SDS011;7429;52.498;13.480;2022-08-25T16:42:13;22.77;;;7.78;;
14681;SDS011;7429;52.498;13.480;2022-08-25T16:45:17;26.35;;;8.55;;
14681;SDS011;7429;52.498;13.480;2022-08-25T16:48:20;23.90;;;7.72;;
14681;SDS011;7429;52.498;13.480;2022-08-25T16:51:25;17.73;;;7.70;;
14681;SDS011;7429;52.498;13.480;2022-08-25T16:54:30;19.33;;;7.88;;
14681;SDS011;7429;52.498;13.480;2022-08-25T16:57:51;19.35;;;8.23;;
14681;SDS011;7429;52.498;13.480;2022-08-25T17:00:55;20.05;;;8.23;;
14681;SDS011;7429;52.498;13.480;2022-08-25T17:04:09;28.48;;;7.68;;
14681;SDS011;7429;52.498;13.480;2022-08-25T17:07:15;22.00;;;7.72;;
14681;SDS011;7429;52.498;13.480;2022-08-25T17:10:24;24.10;;;10.55;;
14681;SDS011;7429;52.498;13.480;2022-08-25T17:13:28;25.42;;;7.93;;
14681;SDS011;7429;52.498;13.480;2022-08-25T17:16:32;20.98;;;7.68;;
14681;SDS011;7429;52.498;13.480;2022-08-25T17:19:36;19.77;;;8.95;;
14681;SDS011;7429;52.498;13.480;2022-08-25T17:22:45;20.98;;;7.43;;
14681;SDS011;7429;52.498;13.480;2022-08-25T17:25:49;18.63;;;7.45;;
14681;SDS011;7429;52.498;13.480;2022-08-25T17:28:53;19.73;;;7.18;;
14681;SDS011;7429;52.498;13.480;2022-08-25T17:31:56;21.38;;;8.52;;
14681;SDS011;7429;52.498;13.480;2022-08-25T17:35:00;23.55;;;8.35;;
14681;SDS011;7429;52.498;13.480;2022-08-25T17:38:07;19.83;;;8.63;;
14681;SDS011;7429;52.498;13.480;2022-08-25T17:41:11;22.20;;;8.25;;
14681;SDS011;7429;52.498;13.480;2022-08-25T17:44:15;19.13;;;7.72;;
14681;SDS011;7429;52.498;13.480;2022-08-25T17:47:19;22.02;;;8.00;;
14681;SDS011;7429;52.498;13.480;2022-08-25T17:50:23;22.23;;;8.43;;
14681;SDS011;7429;52.498;13.480;2022-08-25T17:53:28;19.98;;;8.13;;
14681;SDS011;7429;52.498;13.480;2022-08-25T17:56:31;20.45;;;8.98;;
14681;SDS011;7429;52.498;13.480;2022-08-25T17:59:34;18.10;;;7.57;;
14681;SDS011;7429;52.498;13.480;2022-08-25T18:02:37;18.80;;;8.07;;
14681;SDS011;7429;52.498;13.480;2022-08-25T18:05:40;14.50;;;9.18;;
14681;SDS011;7429;52.498;13.480;2022-08-25T18:08:46;21.77;;;10.55;;
14681;SDS011;7429;52.498;13.480;2022-08-25T18:12:02;21.55;;;7.93;;
14681;SDS011;7429;52.498;13.480;2022-08-25T18:15:06;23.40;;;9.82;;
14681;SDS011;7429;52.498;13.480;2022-08-25T18:18:14;23.10;;;8.55;;
14681;SDS011;7429;52.498;13.480;2022-08-25T18:21:18;16.85;;;9.65;;
14681;SDS011;7429;52.498;13.480;2022-08-25T18:24:24;19.25;;;8.68;;
14681;SDS011;7429;52.498;13.480;2022-08-25T18:27:28;20.35;;;9.13;;
14681;SDS011;7429;52.498;13.480;2022-08-25T18:30:31;17.42;;;9.02;;
14681;SDS011;7429;52.498;13.480;2022-08-25T18:33:34;23.42;;;9.60;;
14681;SDS011;7429;52.498;13.480;2022-08-25T18:36:41;19.27;;;9.02;;
14681;SDS011;7429;52.498;13.480;2022-08-25T18:39:46;19.55;;;9.23;;